ASA173 PAKT-PASI
Flight info
| Callsign | ASA173 |
|---|---|
| Flight time | 0h 35m |
| Altitude | 20000 |
| Route | UDENE3 FLIPS |
| Aircraft | A320/M-SDE3FGHIRWY/LB1 |
Departure
| Time | 2026-04-21 22:56 |
|---|---|
| Airport | Ketchikan International Airport (PAKT) |
Arrival
| Time | 2026-04-21 23:31 |
|---|---|
| Airport | Sitka Rocky Gutierrez Airport (PASI) |
| Time | Latitude | Longitude | Altitude | Speed | Heading |
|---|---|---|---|---|---|
| 2026-04-21 22:03 | 55.35632 | -131.70988 | 61 ft | 0 kts | 47° |
| 2026-04-21 22:48 | 55.35624 | -131.71003 | 59 ft | 4 kts | 51° |
| 2026-04-21 22:48 | 55.35610 | -131.71042 | 58 ft | 4 kts | 66° |
| 2026-04-21 22:48 | 55.35602 | -131.71087 | 57 ft | 4 kts | 83° |
| 2026-04-21 22:48 | 55.35602 | -131.71134 | 59 ft | 4 kts | 101° |
| 2026-04-21 22:49 | 55.35603 | -131.71151 | 59 ft | 4 kts | 109° |
| 2026-04-21 22:49 | 55.35588 | -131.71114 | 55 ft | 4 kts | 132° |
| 2026-04-21 22:49 | 55.35569 | -131.71081 | 56 ft | 3 kts | 135° |
| 2026-04-21 22:49 | 55.35567 | -131.71076 | 56 ft | 0 kts | 135° |
| 2026-04-21 22:50 | 55.35567 | -131.71077 | 56 ft | 0 kts | 135° |
| 2026-04-21 22:51 | 55.35563 | -131.71070 | 54 ft | 4 kts | 135° |
| 2026-04-21 22:52 | 55.35512 | -131.70983 | 60 ft | 10 kts | 136° |
| 2026-04-21 22:52 | 55.35465 | -131.70904 | 55 ft | 8 kts | 136° |
| 2026-04-21 22:52 | 55.35418 | -131.70824 | 61 ft | 17 kts | 135° |
| 2026-04-21 22:52 | 55.35314 | -131.70646 | 64 ft | 20 kts | 136° |
| 2026-04-21 22:53 | 55.35237 | -131.70518 | 70 ft | 10 kts | 136° |
| 2026-04-21 22:53 | 55.35183 | -131.70432 | 87 ft | 15 kts | 137° |
| 2026-04-21 22:53 | 55.35092 | -131.70280 | 91 ft | 24 kts | 136° |
| 2026-04-21 22:53 | 55.34953 | -131.70072 | 96 ft | 22 kts | 140° |
| 2026-04-21 22:54 | 55.34849 | -131.70084 | 100 ft | 14 kts | 204° |
| 2026-04-21 22:54 | 55.34770 | -131.70021 | 96 ft | 14 kts | 121° |
| 2026-04-21 22:54 | 55.34716 | -131.69890 | 94 ft | 12 kts | 136° |
| 2026-04-21 22:54 | 55.34691 | -131.69897 | 94 ft | 1 kts | 270° |
| 2026-04-21 22:55 | 55.34698 | -131.69915 | 94 ft | 2 kts | 310° |
| 2026-04-21 22:55 | 55.34703 | -131.69923 | 96 ft | 0 kts | 316° |
| 2026-04-21 22:55 | 55.34791 | -131.70075 | 98 ft | 52 kts | 315° |
| 2026-04-21 22:56 | 55.35226 | -131.70817 | 95 ft | 119 kts | 316° |
| 2026-04-21 22:56 | 55.35899 | -131.71986 | 479 ft | 137 kts | 317° |
| 2026-04-21 22:56 | 55.36562 | -131.73154 | 1364 ft | 134 kts | 315° |
| 2026-04-21 22:56 | 55.37236 | -131.74309 | 2040 ft | 141 kts | 316° |
| 2026-04-21 22:57 | 55.37997 | -131.75608 | 2437 ft | 163 kts | 315° |
| 2026-04-21 22:57 | 55.38875 | -131.77111 | 2839 ft | 189 kts | 315° |
| 2026-04-21 22:57 | 55.39875 | -131.78825 | 3342 ft | 213 kts | 315° |
| 2026-04-21 22:57 | 55.40993 | -131.80745 | 3931 ft | 234 kts | 315° |
| 2026-04-21 22:58 | 55.42184 | -131.82793 | 4826 ft | 243 kts | 315° |
| 2026-04-21 22:58 | 55.43401 | -131.84892 | 5811 ft | 248 kts | 315° |
| 2026-04-21 22:58 | 55.44644 | -131.87041 | 6749 ft | 252 kts | 315° |
| 2026-04-21 22:58 | 55.45901 | -131.89215 | 7730 ft | 254 kts | 315° |
| 2026-04-21 22:59 | 55.47143 | -131.91446 | 8721 ft | 256 kts | 309° |
| 2026-04-21 22:59 | 55.48131 | -131.94074 | 9703 ft | 259 kts | 297° |
| 2026-04-21 22:59 | 55.48828 | -131.97049 | 10423 ft | 271 kts | 292° |
| 2026-04-21 22:59 | 55.49546 | -132.00280 | 10743 ft | 295 kts | 292° |
| 2026-04-21 23:00 | 55.50327 | -132.03778 | 10997 ft | 318 kts | 292° |
| 2026-04-21 23:00 | 55.51165 | -132.07527 | 11275 ft | 337 kts | 292° |
| 2026-04-21 23:00 | 55.52049 | -132.11469 | 11946 ft | 343 kts | 292° |
| 2026-04-21 23:00 | 55.52925 | -132.15398 | 12761 ft | 345 kts | 292° |
| 2026-04-21 23:01 | 55.53793 | -132.19294 | 13569 ft | 346 kts | 292° |
| 2026-04-21 23:01 | 55.54685 | -132.23311 | 14342 ft | 348 kts | 292° |
| 2026-04-21 23:01 | 55.55568 | -132.27301 | 15036 ft | 350 kts | 292° |
| 2026-04-21 23:01 | 55.56459 | -132.31324 | 15700 ft | 353 kts | 292° |
| 2026-04-21 23:02 | 55.57356 | -132.35388 | 16350 ft | 356 kts | 292° |
| 2026-04-21 23:02 | 55.58256 | -132.39478 | 17046 ft | 358 kts | 292° |
| 2026-04-21 23:02 | 55.59160 | -132.43603 | 17695 ft | 361 kts | 292° |
| 2026-04-21 23:02 | 55.60068 | -132.47764 | 18320 ft | 364 kts | 292° |
| 2026-04-21 23:03 | 55.60982 | -132.51959 | 18838 ft | 367 kts | 292° |
| 2026-04-21 23:03 | 55.61902 | -132.56196 | 19339 ft | 370 kts | 292° |
| 2026-04-21 23:03 | 55.62828 | -132.60472 | 19816 ft | 374 kts | 292° |
| 2026-04-21 23:03 | 55.63761 | -132.64781 | 20085 ft | 376 kts | 292° |
| 2026-04-21 23:04 | 55.64708 | -132.69150 | 20138 ft | 386 kts | 292° |
| 2026-04-21 23:04 | 55.65683 | -132.73648 | 20144 ft | 395 kts | 292° |
| 2026-04-21 23:04 | 55.66655 | -132.78141 | 20143 ft | 397 kts | 292° |
| 2026-04-21 23:04 | 55.67640 | -132.82709 | 20142 ft | 397 kts | 292° |
| 2026-04-21 23:05 | 55.68655 | -132.87264 | 20143 ft | 397 kts | 295° |
| 2026-04-21 23:05 | 55.69991 | -132.91518 | 20150 ft | 395 kts | 304° |
| 2026-04-21 23:05 | 55.71676 | -132.95357 | 20141 ft | 394 kts | 309° |
| 2026-04-21 23:05 | 55.73422 | -132.99111 | 20144 ft | 395 kts | 309° |
| 2026-04-21 23:06 | 55.75169 | -133.02867 | 20143 ft | 395 kts | 309° |
| 2026-04-21 23:06 | 55.76915 | -133.06628 | 20143 ft | 395 kts | 309° |
| 2026-04-21 23:06 | 55.78660 | -133.10399 | 20146 ft | 395 kts | 309° |
| 2026-04-21 23:06 | 55.80401 | -133.14176 | 20148 ft | 395 kts | 309° |
| 2026-04-21 23:07 | 55.82141 | -133.17959 | 20146 ft | 395 kts | 309° |
| 2026-04-21 23:07 | 55.83880 | -133.21744 | 20148 ft | 395 kts | 309° |
| 2026-04-21 23:07 | 55.85616 | -133.25530 | 20148 ft | 395 kts | 309° |
| 2026-04-21 23:07 | 55.87349 | -133.29325 | 20111 ft | 395 kts | 309° |
| 2026-04-21 23:08 | 55.89074 | -133.33110 | 19854 ft | 392 kts | 309° |
| 2026-04-21 23:08 | 55.90788 | -133.36871 | 19600 ft | 390 kts | 308° |
| 2026-04-21 23:08 | 55.92494 | -133.40616 | 19353 ft | 388 kts | 308° |
| 2026-04-21 23:08 | 55.94193 | -133.44348 | 19102 ft | 387 kts | 308° |
| 2026-04-21 23:09 | 55.95886 | -133.48074 | 18852 ft | 386 kts | 308° |
| 2026-04-21 23:09 | 55.97573 | -133.51789 | 18610 ft | 384 kts | 308° |
| 2026-04-21 23:09 | 55.99252 | -133.55490 | 18354 ft | 383 kts | 308° |
| 2026-04-21 23:09 | 56.00925 | -133.59180 | 18073 ft | 382 kts | 308° |
| 2026-04-21 23:10 | 56.02590 | -133.62864 | 17793 ft | 380 kts | 308° |
| 2026-04-21 23:10 | 56.04246 | -133.66542 | 17532 ft | 379 kts | 308° |
| 2026-04-21 23:10 | 56.05893 | -133.70211 | 17259 ft | 378 kts | 308° |
| 2026-04-21 23:10 | 56.07533 | -133.73872 | 16982 ft | 376 kts | 308° |
| 2026-04-21 23:11 | 56.09168 | -133.77520 | 16722 ft | 375 kts | 308° |
| 2026-04-21 23:11 | 56.10799 | -133.81154 | 16457 ft | 374 kts | 308° |
| 2026-04-21 23:11 | 56.12425 | -133.84776 | 16194 ft | 372 kts | 308° |
| 2026-04-21 23:11 | 56.14044 | -133.88397 | 15932 ft | 371 kts | 308° |
| 2026-04-21 23:12 | 56.15652 | -133.92005 | 15672 ft | 370 kts | 308° |
| 2026-04-21 23:12 | 56.17256 | -133.95606 | 15420 ft | 369 kts | 308° |
| 2026-04-21 23:12 | 56.18856 | -133.99198 | 15163 ft | 368 kts | 308° |
| 2026-04-21 23:12 | 56.20447 | -134.02777 | 14908 ft | 366 kts | 308° |
| 2026-04-21 23:13 | 56.22030 | -134.06353 | 14657 ft | 365 kts | 308° |
| 2026-04-21 23:13 | 56.23591 | -134.09891 | 14149 ft | 358 kts | 308° |
| 2026-04-21 23:13 | 56.25127 | -134.13363 | 13521 ft | 351 kts | 308° |
| 2026-04-21 23:13 | 56.26633 | -134.16769 | 12939 ft | 344 kts | 308° |
| 2026-04-21 23:14 | 56.28103 | -134.20100 | 12383 ft | 336 kts | 308° |
| 2026-04-21 23:14 | 56.29550 | -134.23393 | 11820 ft | 335 kts | 308° |
| 2026-04-21 23:14 | 56.30988 | -134.26673 | 11305 ft | 331 kts | 308° |
| 2026-04-21 23:14 | 56.32361 | -134.29805 | 11170 ft | 314 kts | 308° |
| 2026-04-21 23:15 | 56.33680 | -134.32814 | 11042 ft | 298 kts | 308° |
| 2026-04-21 23:15 | 56.34935 | -134.35679 | 10914 ft | 284 kts | 308° |
| 2026-04-21 23:15 | 56.36130 | -134.38414 | 10788 ft | 272 kts | 308° |
| 2026-04-21 23:15 | 56.37275 | -134.41039 | 10590 ft | 263 kts | 308° |
| 2026-04-21 23:16 | 56.38395 | -134.43604 | 10344 ft | 258 kts | 308° |
| 2026-04-21 23:16 | 56.39503 | -134.46141 | 10095 ft | 257 kts | 308° |
| 2026-04-21 23:16 | 56.40606 | -134.48674 | 9885 ft | 257 kts | 308° |
| 2026-04-21 23:16 | 56.41710 | -134.51214 | 9746 ft | 257 kts | 308° |
| 2026-04-21 23:17 | 56.42816 | -134.53754 | 9608 ft | 257 kts | 308° |
| 2026-04-21 23:17 | 56.43918 | -134.56290 | 9473 ft | 256 kts | 308° |
| 2026-04-21 23:17 | 56.45018 | -134.58824 | 9336 ft | 256 kts | 308° |
| 2026-04-21 23:17 | 56.46118 | -134.61356 | 9195 ft | 256 kts | 308° |
| 2026-04-21 23:18 | 56.47216 | -134.63889 | 9058 ft | 256 kts | 308° |
| 2026-04-21 23:18 | 56.48311 | -134.66421 | 8921 ft | 255 kts | 308° |
| 2026-04-21 23:18 | 56.49404 | -134.68956 | 8692 ft | 254 kts | 308° |
| 2026-04-21 23:18 | 56.50488 | -134.71475 | 8375 ft | 253 kts | 308° |
| 2026-04-21 23:19 | 56.51569 | -134.73982 | 7989 ft | 251 kts | 309° |
| 2026-04-21 23:19 | 56.52644 | -134.76481 | 7640 ft | 253 kts | 308° |
| 2026-04-21 23:19 | 56.53720 | -134.78992 | 7300 ft | 251 kts | 308° |
| 2026-04-21 23:19 | 56.54791 | -134.81497 | 6928 ft | 251 kts | 308° |
| 2026-04-21 23:20 | 56.55865 | -134.83999 | 6564 ft | 252 kts | 308° |
| 2026-04-21 23:20 | 56.56945 | -134.86508 | 6203 ft | 253 kts | 308° |
| 2026-04-21 23:20 | 56.58024 | -134.89017 | 5990 ft | 248 kts | 308° |
| 2026-04-21 23:20 | 56.59093 | -134.91505 | 5995 ft | 251 kts | 308° |
| 2026-04-21 23:21 | 56.60161 | -134.93996 | 6041 ft | 248 kts | 308° |
| 2026-04-21 23:21 | 56.61209 | -134.96452 | 6001 ft | 245 kts | 307° |
| 2026-04-21 23:21 | 56.62255 | -134.98907 | 6009 ft | 247 kts | 307° |
| 2026-04-21 23:21 | 56.63305 | -135.01372 | 6012 ft | 247 kts | 307° |
| 2026-04-21 23:22 | 56.64357 | -135.03845 | 6014 ft | 249 kts | 307° |
| 2026-04-21 23:22 | 56.65412 | -135.06331 | 6004 ft | 247 kts | 307° |
| 2026-04-21 23:22 | 56.66464 | -135.08812 | 6018 ft | 248 kts | 308° |
| 2026-04-21 23:22 | 56.67515 | -135.11287 | 6016 ft | 248 kts | 308° |
| 2026-04-21 23:23 | 56.68567 | -135.13763 | 6005 ft | 247 kts | 307° |
| 2026-04-21 23:23 | 56.69611 | -135.16231 | 6011 ft | 246 kts | 307° |
| 2026-04-21 23:23 | 56.70655 | -135.18704 | 6009 ft | 247 kts | 307° |
| 2026-04-21 23:23 | 56.71700 | -135.21178 | 6006 ft | 246 kts | 307° |
| 2026-04-21 23:24 | 56.72745 | -135.23650 | 6001 ft | 247 kts | 307° |
| 2026-04-21 23:24 | 56.73788 | -135.26120 | 6007 ft | 241 kts | 307° |
| 2026-04-21 23:24 | 56.74800 | -135.28512 | 6008 ft | 237 kts | 308° |
| 2026-04-21 23:24 | 56.75991 | -135.30580 | 6008 ft | 238 kts | 323° |
| 2026-04-21 23:25 | 56.77478 | -135.31993 | 5567 ft | 246 kts | 339° |
| 2026-04-21 23:25 | 56.79117 | -135.32915 | 5093 ft | 247 kts | 340° |
| 2026-04-21 23:25 | 56.80759 | -135.33847 | 4616 ft | 247 kts | 339° |
| 2026-04-21 23:25 | 56.82396 | -135.34785 | 4164 ft | 246 kts | 340° |
| 2026-04-21 23:26 | 56.84029 | -135.35723 | 3714 ft | 246 kts | 340° |
| 2026-04-21 23:26 | 56.85663 | -135.36663 | 3254 ft | 246 kts | 341° |
| 2026-04-21 23:26 | 56.87283 | -135.37593 | 2769 ft | 240 kts | 341° |
| 2026-04-21 23:26 | 56.88894 | -135.38161 | 2513 ft | 232 kts | 350° |
| 2026-04-21 23:27 | 56.90445 | -135.38587 | 2436 ft | 215 kts | 349° |
| 2026-04-21 23:27 | 56.91877 | -135.38998 | 2383 ft | 202 kts | 348° |
| 2026-04-21 23:27 | 56.93232 | -135.39391 | 2287 ft | 190 kts | 348° |
| 2026-04-21 23:27 | 56.94503 | -135.39501 | 2194 ft | 180 kts | 9° |
| 2026-04-21 23:28 | 56.95640 | -135.38608 | 2073 ft | 178 kts | 38° |
| 2026-04-21 23:28 | 56.96231 | -135.37595 | 1968 ft | 172 kts | 43° |
| 2026-04-21 23:28 | 56.97051 | -135.36119 | 1825 ft | 160 kts | 42° |
| 2026-04-21 23:28 | 56.98054 | -135.34329 | 1599 ft | 147 kts | 42° |
| 2026-04-21 23:29 | 56.98546 | -135.33453 | 1459 ft | 145 kts | 42° |
| 2026-04-21 23:29 | 56.99274 | -135.32167 | 1250 ft | 145 kts | 39° |
| 2026-04-21 23:29 | 57.00140 | -135.31272 | 1042 ft | 142 kts | 14° |
| 2026-04-21 23:29 | 57.01111 | -135.31084 | 831 ft | 141 kts | 351° |
| 2026-04-21 23:30 | 57.02039 | -135.31587 | 614 ft | 140 kts | 328° |
| 2026-04-21 23:30 | 57.02782 | -135.32664 | 426 ft | 138 kts | 312° |
| 2026-04-21 23:30 | 57.03470 | -135.33906 | 216 ft | 139 kts | 313° |
| 2026-04-21 23:30 | 57.04168 | -135.35155 | 58 ft | 140 kts | 310° |
| 2026-04-21 23:31 | 57.04768 | -135.36297 | 38 ft | 90 kts | 316° |
| 2026-04-21 23:31 | 57.05082 | -135.36830 | 35 ft | 51 kts | 314° |
| 2026-04-21 23:31 | 57.05296 | -135.37205 | 37 ft | 30 kts | 321° |
| 2026-04-21 23:31 | 57.05384 | -135.37112 | 35 ft | 16 kts | 112° |
| 2026-04-21 23:32 | 57.05308 | -135.36953 | 35 ft | 18 kts | 136° |
| 2026-04-21 23:32 | 57.05237 | -135.36820 | 36 ft | 15 kts | 130° |
| 2026-04-21 23:32 | 57.05224 | -135.36685 | 35 ft | 10 kts | 76° |
| 2026-04-21 23:32 | 57.05233 | -135.36620 | 35 ft | 5 kts | 76° |
| 2026-04-21 23:33 | 57.05235 | -135.36605 | 35 ft | 0 kts | 76° |